.
WxDataArchive / Data Records for 2006-04-06
2006-04-05 April 2006 2006-04-07

Data Records for Thursday, 06 April 2006

Time	Temp	Chill	HIndex	Humid	Dewpt	 Wind 	HiWind	WindDir	Rain 	Barom 
-----	----	-----	------	-----	-----	------	------	-------	-----	----- 
00:00	44.8	44.8	44.8	50	27.3	0	0	---	0.00	29.926 
00:05	44.6	44.6	44.6	50	27.1	0	1	270	0.00	29.926 
00:10	44.8	44.8	44.8	49	26.8	0	3	248	0.00	29.926 
00:15	44.6	44.6	44.6	49	26.6	0	1	248	0.00	29.922 
00:20	44.6	44.6	44.6	50	27.1	0	0	---	0.00	29.922 
00:25	44.6	44.6	44.6	50	27.1	0	1	248	0.00	29.922 
00:30	44.6	44.6	44.6	50	27.1	0	1	248	0.00	29.924 
00:35	44.6	44.6	44.6	50	27.1	0	1	248	0.00	29.924 
00:40	44.6	44.6	44.6	50	27.1	0	0	---	0.00	29.924 
00:45	44.6	44.6	44.6	50	27.1	0	0	---	0.00	29.922 
00:50	44.6	44.6	44.6	51	27.6	0	1	248	0.00	29.922 
00:55	44.5	44.5	44.5	50	27.0	0	1	248	0.00	29.922 
01:00	44.5	44.5	44.5	50	27.0	0	0	---	0.00	29.923 
01:05	44.5	44.5	44.5	50	27.0	0	1	248	0.00	29.923 
01:10	44.5	44.5	44.5	49	26.5	0	1	248	0.00	29.923 
01:15	44.5	44.5	44.5	50	27.0	0	1	248	0.00	29.928 
01:20	44.5	44.5	44.5	51	27.5	0	0	---	0.00	29.928 
01:25	44.5	44.5	44.5	51	27.5	0	1	248	0.00	29.928 
01:30	44.5	44.5	44.5	51	27.5	0	0	---	0.00	29.923 
01:35	44.3	44.3	44.3	50	26.8	0	0	---	0.00	29.923 
01:40	44.3	44.3	44.3	50	26.8	0	1	248	0.00	29.923 
01:45	44.2	44.2	44.2	50	26.8	0	0	---	0.00	29.921 
01:50	44.2	44.2	44.2	50	26.8	0	0	---	0.00	29.921 
01:55	44.2	44.2	44.2	50	26.8	0	0	---	0.00	29.921 
02:00	44.2	44.2	44.2	50	26.8	0	0	---	0.00	29.920 
02:05	44.1	44.1	44.1	51	27.1	0	0	---	0.00	29.920 
02:10	44.2	44.2	44.2	51	27.2	0	1	248	0.00	29.920 
02:15	44.1	44.1	44.1	50	26.7	0	0	---	0.00	29.921 
02:20	44.1	44.1	44.1	51	27.1	0	1	248	0.00	29.921 
02:25	44.1	44.1	44.1	50	26.7	0	0	---	0.00	29.921 
02:30	44.1	44.1	44.1	50	26.7	0	0	---	0.00	29.931 
02:35	44.1	44.1	44.1	50	26.7	0	2	248	0.00	29.931 
02:40	44.1	44.1	44.1	50	26.7	0	1	248	0.00	29.931 
02:45	44.1	44.1	44.1	50	26.7	0	0	---	0.00	29.922 
02:50	44.1	44.1	44.1	50	26.7	0	0	---	0.00	29.922 
02:55	43.9	43.9	43.9	50	26.5	0	0	---	0.00	29.922 
03:00	43.9	43.9	43.9	51	27.0	0	0	---	0.00	29.918 
03:05	43.8	43.8	43.8	51	26.9	0	1	248	0.00	29.918 
03:10	43.6	43.6	43.6	51	26.7	0	0	---	0.00	29.918 
03:15	43.5	43.5	43.5	52	27.1	0	0	---	0.00	29.918 
03:20	43.5	43.5	43.5	52	27.1	0	0	---	0.00	29.918 
03:25	43.3	43.3	43.3	53	27.3	0	0	---	0.00	29.918 
03:30	43.1	43.1	43.1	55	28.0	0	0	---	0.00	29.912 
03:35	42.9	42.9	42.9	54	27.4	0	0	---	0.00	29.912 
03:40	42.8	42.8	42.8	55	27.8	0	1	248	0.00	29.912 
03:45	42.6	42.6	42.6	56	28.0	0	0	---	0.00	29.910 
03:50	42.5	42.5	42.5	56	27.9	0	0	---	0.00	29.910 
03:55	42.2	42.2	42.2	57	28.1	0	0	---	0.00	29.910 
04:00	42.1	42.1	42.1	57	28.0	0	1	248	0.00	29.903 
04:05	41.9	41.9	41.9	57	27.8	0	1	248	0.00	29.903 
04:10	41.9	41.9	41.9	58	28.2	0	1	248	0.00	29.903 
04:15	41.8	41.8	41.8	59	28.5	0	0	---	0.00	29.905 
04:20	41.8	41.8	41.8	59	28.5	0	0	---	0.00	29.905 
04:25	41.6	41.6	41.6	58	27.9	0	0	---	0.00	29.905 
04:30	41.8	41.8	41.8	57	27.7	0	1	248	0.00	29.909 
04:35	41.9	41.9	41.9	56	27.4	0	1	248	0.00	29.909 
04:40	42.1	42.1	42.1	54	26.7	0	2	248	0.00	29.909 
04:45	42.3	42.3	42.3	53	26.4	0	2	248	0.00	29.906 
04:50	42.5	42.5	42.5	53	26.6	0	2	292	0.00	29.906 
04:55	42.6	42.6	42.6	53	26.7	0	2	292	0.00	29.906 
05:00	42.8	42.8	42.8	53	26.9	0	2	292	0.00	29.904 
05:05	42.8	42.8	42.8	52	26.4	0	2	292	0.00	29.904 
05:10	42.8	42.8	42.8	52	26.4	0	1	292	0.00	29.904 
05:15	42.9	42.9	42.9	52	26.5	0	2	315	0.00	29.906 
05:20	42.9	42.9	42.9	52	26.5	1	3	315	0.00	29.906 
05:25	42.9	42.9	42.9	54	27.4	0	2	315	0.00	29.906 
05:30	42.9	42.9	42.9	54	27.4	1	3	315	0.00	29.903 
05:35	42.8	42.8	42.8	54	27.3	1	3	22	0.00	29.903 
05:40	42.8	42.8	42.8	54	27.3	0	2	22	0.00	29.903 
05:45	42.6	42.6	42.6	55	27.6	0	2	22	0.00	29.904 
05:50	42.6	42.6	42.6	54	27.1	1	2	22	0.00	29.904 
05:55	42.6	42.6	42.6	55	27.6	0	2	22	0.00	29.904 
06:00	42.5	42.5	42.5	56	27.9	1	3	22	0.00	29.905 
06:05	42.5	42.5	42.5	58	28.8	1	4	90	0.00	29.905 
06:10	42.3	42.3	42.3	58	28.6	0	2	90	0.00	29.905 
06:15	42.3	42.3	42.3	58	28.6	1	2	90	0.00	29.909 
06:20	42.2	42.2	42.2	57	28.1	1	4	90	0.00	29.909 
06:25	42.2	42.2	42.2	56	27.6	1	5	90	0.00	29.909 
06:30	42.2	42.2	42.2	56	27.6	2	4	90	0.00	29.909 
06:35	42.2	42.2	42.2	58	28.5	2	3	112	0.00	29.909 
06:40	42.2	42.2	42.2	58	28.5	1	3	90	0.00	29.909 
06:45	42.1	42.1	42.1	57	28.0	2	4	90	0.00	29.909 
06:50	42.1	42.1	42.1	57	28.0	2	4	90	0.00	29.909 
06:55	42.1	42.1	42.1	57	28.0	2	4	90	0.00	29.909 
07:00	41.9	41.9	41.9	57	27.8	2	4	90	0.00	29.906 
07:05	41.9	41.9	41.9	58	28.2	2	4	90	0.00	29.906 
07:10	41.8	41.8	41.8	58	28.1	2	4	90	0.00	29.906 
07:15	41.6	41.6	41.6	57	27.5	3	4	90	0.00	29.901 
07:20	41.6	41.6	41.6	58	27.9	3	5	90	0.00	29.901 
07:25	41.5	41.5	41.5	60	28.7	2	6	90	0.00	29.901 
07:30	41.3	41.3	41.3	62	29.3	2	4	90	0.00	29.891 
07:35	41.2	41.2	41.2	60	28.4	2	4	90	0.00	29.891 
07:40	41.2	41.2	41.2	59	28.0	2	5	112	0.00	29.891 
07:45	41.3	41.3	41.3	59	28.1	0	1	112	0.00	29.894 
07:50	41.3	41.3	41.3	59	28.1	1	2	112	0.00	29.894 
07:55	41.5	41.5	41.5	60	28.7	1	2	112	0.00	29.894 
08:00	41.6	41.6	41.6	59	28.3	1	2	112	0.00	29.901 
08:05	41.6	41.6	41.6	58	27.9	2	4	112	0.00	29.901 
08:10	42.1	42.1	42.1	58	28.4	3	6	90	0.00	29.901 
08:15	42.8	42.8	42.8	56	28.2	3	5	90	0.00	29.896 
08:20	43.2	43.2	43.2	57	29.0	3	5	112	0.00	29.896 
08:25	43.5	43.5	43.5	56	28.9	3	4	112	0.00	29.896 
08:30	43.6	43.6	43.6	56	29.0	3	6	112	0.00	29.901 
08:35	43.6	43.6	43.6	56	29.0	2	4	112	0.00	29.901 
08:40	43.5	43.5	43.5	56	28.9	3	6	112	0.00	29.901 
08:45	43.5	43.5	43.5	56	28.9	3	6	90	0.00	29.894 
08:50	43.6	43.6	43.6	55	28.5	3	6	112	0.00	29.894 
08:55	43.9	43.9	43.9	57	29.7	3	6	90	0.00	29.894 
09:00	44.1	42.1	44.1	54	28.5	4	7	112	0.00	29.900 
09:05	44.2	44.2	44.2	57	29.9	3	10	112	0.00	29.900 
09:10	44.5	44.5	44.5	55	29.3	3	10	90	0.00	29.900 
09:15	44.6	44.6	44.6	56	29.9	3	6	90	0.00	29.913 
09:20	44.6	44.6	44.6	57	30.3	3	7	90	0.00	29.913 
09:25	44.6	44.6	44.6	56	29.9	3	6	90	0.00	29.913 
09:30	44.9	44.9	44.9	55	29.7	2	5	112	0.00	29.910 
09:35	45.1	43.2	45.1	56	30.4	4	7	90	0.00	29.910 
09:40	45.2	43.3	45.2	56	30.4	4	6	90	0.00	29.910 
09:45	45.4	45.4	45.4	56	30.6	3	6	112	0.00	29.896 
09:50	45.5	43.7	45.5	55	30.3	4	9	90	0.00	29.896 
09:55	45.5	43.7	45.5	54	29.8	4	9	112	0.00	29.896 
10:00	45.8	45.8	45.8	54	30.1	3	7	112	0.00	29.891 
10:05	46.4	46.4	46.4	54	30.7	2	6	90	0.00	29.891 
10:10	46.8	46.8	46.8	54	31.0	3	6	90	0.00	29.891 
10:15	47.1	45.5	47.1	54	31.3	4	7	112	0.00	29.893 
10:20	47.3	45.8	47.3	54	31.5	4	7	90	0.00	29.893 
10:25	47.7	47.7	47.7	54	31.9	2	5	90	0.00	29.893 
10:30	48.2	48.2	48.2	52	31.4	3	7	90	0.00	29.896 
10:35	48.5	48.5	48.5	52	31.7	2	6	90	0.00	29.896 
10:40	49.1	49.1	49.1	53	32.7	1	4	90	0.00	29.896 
10:45	49.5	49.5	49.5	53	33.1	3	10	90	0.00	29.892 
10:50	49.4	49.4	49.4	49	31.0	3	6	90	0.00	29.892 
10:55	49.2	49.2	49.2	53	32.8	2	6	90	0.00	29.892 
11:00	49.6	49.6	49.6	51	32.2	2	5	112	0.00	29.889 
11:05	49.6	49.6	49.6	50	31.7	2	5	112	0.00	29.889 
11:10	49.8	49.8	49.8	51	32.4	3	6	90	0.00	29.889 
11:15	49.9	49.9	49.9	48	31.0	3	7	90	0.00	29.885 
11:20	50.1	50.1	50.1	50	32.2	4	9	112	0.00	29.885 
11:25	50.4	50.4	50.4	50	32.5	3	6	90	0.00	29.885 
11:30	50.8	50.8	50.8	49	32.3	2	5	135	0.00	29.880 
11:35	51.0	51.0	51.0	49	32.5	4	6	112	0.00	29.880 
11:40	50.8	50.8	50.8	50	32.8	4	10	112	0.00	29.880 
11:45	51.1	51.1	51.1	50	33.1	3	7	112	0.00	29.878 
11:50	51.6	51.6	51.6	49	33.1	4	9	112	0.00	29.878 
11:55	51.9	51.9	51.9	49	33.3	4	8	112	0.00	29.878 
12:00	52.2	52.2	52.2	48	33.1	4	7	112	0.00	29.879 
12:05	52.8	52.8	52.8	46	32.6	3	6	112	0.00	29.879 
12:10	53.1	53.1	53.1	46	32.9	4	9	90	0.00	29.879 
12:15	53.2	53.2	53.2	46	33.0	4	10	112	0.00	29.871 
12:20	53.5	53.5	53.5	45	32.7	3	7	112	0.00	29.871 
12:25	54.1	54.1	54.1	43	32.1	3	5	112	0.00	29.871 
12:30	54.2	54.2	54.2	42	31.6	5	11	112	0.00	29.864 
12:35	54.4	54.4	54.4	45	33.5	3	7	112	0.00	29.864 
12:40	54.7	54.7	54.7	43	32.6	3	6	90	0.00	29.864 
12:45	55.1	55.1	55.1	41	31.8	2	5	90	0.00	29.854 
12:50	55.1	55.1	55.1	42	32.4	3	6	112	0.00	29.854 
12:55	55.1	55.1	55.1	44	33.6	3	9	112	0.00	29.854 
13:00	55.3	55.3	55.3	45	34.3	3	6	90	0.00	29.844 
13:05	55.7	55.7	55.7	40	31.8	4	10	112	0.00	29.844 
13:10	55.9	55.9	55.9	40	31.9	4	10	90	0.00	29.844 
13:15	56.2	56.2	56.2	43	34.0	3	9	90	0.00	29.837 
13:20	56.5	56.5	56.5	39	31.8	4	10	112	0.00	29.837 
13:25	56.5	56.5	56.5	41	33.1	4	9	112	0.00	29.837 
13:30	56.7	56.7	56.7	37	30.7	4	10	112	0.00	29.825 
13:35	57.2	57.2	57.2	40	33.1	3	7	112	0.00	29.825 
13:40	57.6	57.6	57.6	36	30.8	4	9	90	0.00	29.825 
13:45	58.1	58.1	58.1	38	32.6	3	7	112	0.00	29.813 
13:50	58.6	58.6	58.6	37	32.4	3	7	112	0.00	29.813 
13:55	58.7	58.7	58.7	35	31.1	4	12	90	0.00	29.813 
14:00	59.5	59.5	59.5	36	32.5	3	10	112	0.00	29.806 
14:05	59.8	59.8	59.8	35	32.1	5	12	90	0.00	29.806 
14:10	59.8	59.8	59.8	35	32.1	4	11	112	0.00	29.806 
14:15	60.1	60.1	60.1	29	27.7	3	7	112	0.00	29.795 
14:20	59.9	59.9	59.9	31	29.2	3	12	112	0.00	29.795 
14:25	59.8	59.8	59.8	31	29.1	4	8	90	0.00	29.795 
14:30	60.5	60.5	60.5	33	31.3	4	9	112	0.00	29.787 
14:35	60.9	60.9	60.9	29	28.4	4	9	90	0.00	29.787 
14:40	61.5	61.5	61.5	26	26.3	4	11	90	0.00	29.787 
14:45	61.8	61.8	61.8	28	28.4	3	6	90	0.00	29.784 
14:50	62.4	62.4	62.4	28	28.9	4	7	90	0.00	29.784 
14:55	62.6	62.6	62.6	30	30.7	4	11	90	0.00	29.784 
15:00	62.7	62.7	62.7	31	31.6	3	6	90	0.00	29.770 
15:05	62.9	62.9	62.9	29	30.2	3	9	112	0.00	29.770 
15:10	62.9	62.9	62.9	28	29.3	4	9	90	0.00	29.770 
15:15	62.9	62.9	62.9	31	31.8	3	6	112	0.00	29.766 
15:20	62.6	62.6	62.6	28	29.0	4	9	90	0.00	29.766 
15:25	62.1	62.1	62.1	31	31.1	3	9	90	0.00	29.766 
15:30	62.1	62.1	62.1	31	31.1	3	6	112	0.00	29.754 
15:35	61.8	61.8	61.8	31	30.8	3	7	90	0.00	29.754 
15:40	61.5	61.5	61.5	31	30.6	3	7	90	0.00	29.754 
15:45	61.6	61.6	61.6	31	30.7	3	11	90	0.00	29.754 
15:50	61.3	61.3	61.3	31	30.4	4	9	112	0.00	29.754 
15:55	61.3	61.3	61.3	34	32.7	3	7	90	0.00	29.754 
16:00	61.3	61.3	61.3	35	33.4	3	6	90	0.00	29.757 
16:05	61.6	61.6	61.6	35	33.7	3	6	90	0.00	29.757 
16:10	61.5	61.5	61.5	37	35.0	4	12	90	0.00	29.757 
16:15	61.2	61.2	61.2	34	32.6	4	10	90	0.00	29.755 
16:20	60.9	60.9	60.9	37	34.5	3	6	112	0.00	29.755 
16:25	60.9	60.9	60.9	35	33.1	4	10	112	0.00	29.755 
16:30	60.7	60.7	60.7	37	34.3	3	6	112	0.00	29.753 
16:35	61.0	61.0	61.0	37	34.5	3	9	112	0.00	29.753 
16:40	61.2	61.2	61.2	35	33.3	3	8	90	0.00	29.753 
16:45	60.7	60.7	60.7	36	33.6	4	9	90	0.00	29.756 
16:50	60.4	60.4	60.4	36	33.3	4	7	112	0.00	29.756 
16:55	60.2	60.2	60.2	38	34.5	2	5	112	0.00	29.756 
17:00	60.1	60.1	60.1	38	34.4	3	13	90	0.00	29.756 
17:05	59.9	59.9	59.9	36	32.9	4	7	90	0.00	29.756 
17:10	59.9	59.9	59.9	38	34.2	4	9	90	0.00	29.756 
17:15	59.9	59.9	59.9	38	34.2	2	6	90	0.00	29.740 
17:20	59.9	59.9	59.9	37	33.6	4	9	90	0.00	29.740 
17:25	59.9	59.9	59.9	38	34.2	4	11	90	0.00	29.740 
17:30	59.8	59.8	59.8	38	34.1	4	10	90	0.00	29.726 
17:35	59.6	59.6	59.6	40	35.3	2	5	68	0.00	29.726 
17:40	59.6	59.6	59.6	40	35.3	3	6	112	0.00	29.726 
17:45	59.3	59.3	59.3	40	35.0	3	6	90	0.00	29.733 
17:50	59.2	59.2	59.2	40	34.9	2	6	90	0.00	29.733 
17:55	59.0	59.0	59.0	39	34.1	3	6	90	0.00	29.733 
18:00	59.0	59.0	59.0	41	35.3	2	5	112	0.00	29.731 
18:05	58.9	58.9	58.9	41	35.2	3	5	90	0.00	29.731 
18:10	58.7	58.7	58.7	41	35.1	3	10	112	0.00	29.731 
18:15	58.7	58.7	58.7	41	35.1	3	6	112	0.00	29.734 
18:20	58.6	58.6	58.6	42	35.6	4	9	90	0.00	29.734 
18:25	58.6	58.6	58.6	45	37.3	4	9	90	0.00	29.734 
18:30	58.4	58.4	58.4	45	37.1	3	6	112	0.00	29.737 
18:35	58.4	58.4	58.4	45	37.1	3	6	112	0.00	29.737 
18:40	58.3	58.3	58.3	46	37.6	3	9	90	0.00	29.737 
18:45	58.1	58.1	58.1	46	37.4	3	7	112	0.00	29.731 
18:50	58.1	58.1	58.1	47	38.0	3	7	112	0.00	29.731 
18:55	58.0	58.0	58.0	47	37.9	3	8	112	0.00	29.731 
19:00	57.8	57.8	57.8	47	37.7	2	5	90	0.00	29.734 
19:05	57.6	57.6	57.6	48	38.1	3	7	135	0.00	29.734 
19:10	57.5	57.5	57.5	50	39.0	2	6	90	0.00	29.734 
19:15	57.2	57.2	57.2	52	39.7	3	10	90	0.00	29.730 
19:20	56.6	56.6	56.6	60	42.9	4	9	90	0.00	29.730 
19:25	55.7	55.7	55.7	61	42.5	3	8	90	0.00	29.730 
19:30	55.4	55.4	55.4	62	42.6	3	6	90	0.00	29.730 
19:35	55.1	55.1	55.1	65	43.5	3	5	90	0.00	29.730 
19:40	54.7	54.7	54.7	66	43.6	3	7	90	0.00	29.730 
19:45	54.2	54.2	54.2	67	43.5	2	6	90	0.00	29.717 
19:50	53.9	53.9	53.9	68	43.6	2	7	90	0.00	29.717 
19:55	53.9	53.9	53.9	66	42.8	2	5	112	0.00	29.717 
20:00	54.1	54.1	54.1	65	42.6	2	6	112	0.00	29.701 
20:05	54.2	54.2	54.2	64	42.3	2	5	112	0.00	29.701 
20:10	54.5	54.5	54.5	63	42.2	2	4	90	0.00	29.701 
20:15	54.7	54.7	54.7	62	41.9	3	5	112	0.00	29.696 
20:20	54.8	54.8	54.8	62	42.0	2	4	90	0.00	29.696 
20:25	55.0	55.0	55.0	61	41.8	3	5	112	0.00	29.696 
20:30	55.1	55.1	55.1	60	41.5	3	6	112	0.00	29.685 
20:35	55.1	55.1	55.1	60	41.5	2	6	112	0.00	29.685 
20:40	55.1	55.1	55.1	60	41.5	2	5	112	0.00	29.685 
20:45	55.3	55.3	55.3	61	42.1	2	4	112	0.00	29.695 
20:50	55.3	55.3	55.3	64	43.3	3	10	90	0.00	29.695 
20:55	55.3	55.3	55.3	65	43.7	3	7	112	0.00	29.695 
21:00	55.1	55.1	55.1	66	43.9	3	6	90	0.00	29.683 
21:05	55.0	55.0	55.0	67	44.2	3	6	112	0.00	29.683 
21:10	54.8	54.8	54.8	68	44.4	2	6	112	0.00	29.683 
21:15	54.7	54.7	54.7	69	44.7	4	9	90	0.00	29.677 
21:20	54.5	54.5	54.5	70	44.9	2	9	90	0.00	29.677 
21:25	54.4	54.4	54.4	70	44.8	4	9	90	0.00	29.677 
21:30	54.2	54.2	54.2	71	45.0	3	6	112	0.00	29.670 
21:35	54.2	54.2	54.2	72	45.4	2	5	112	0.00	29.670 
21:40	54.1	54.1	54.1	73	45.6	3	7	135	0.00	29.670 
21:45	53.9	53.9	53.9	74	45.8	2	6	112	0.00	29.676 
21:50	53.8	53.8	53.8	75	46.1	4	12	90	0.00	29.676 
21:55	53.6	53.6	53.6	76	46.2	3	7	90	0.00	29.676 
22:00	53.5	53.5	53.5	76	46.1	3	6	112	0.00	29.676 
22:05	53.5	53.5	53.5	77	46.5	3	7	90	0.00	29.676 
22:10	53.3	53.3	53.3	77	46.3	2	6	90	0.00	29.676 
22:15	53.3	53.3	53.3	77	46.3	2	5	112	0.00	29.668 
22:20	53.2	53.2	53.2	79	46.9	3	8	90	0.00	29.668 
22:25	53.1	53.1	53.1	79	46.8	1	4	112	0.00	29.668 
22:30	52.9	52.9	52.9	79	46.6	2	6	90	0.00	29.666 
22:35	52.9	52.9	52.9	80	46.9	2	5	112	0.00	29.666 
22:40	52.9	52.9	52.9	80	46.9	2	5	68	0.00	29.666 
22:45	52.8	52.8	52.8	80	46.8	3	6	112	0.00	29.663 
22:50	52.8	52.8	52.8	81	47.1	2	6	112	0.00	29.663 
22:55	52.8	52.8	52.8	81	47.1	2	4	112	0.00	29.663 
23:00	52.8	52.8	52.8	81	47.1	2	5	112	0.00	29.655 
23:05	52.6	52.6	52.6	81	46.9	2	5	112	0.00	29.655 
23:10	52.6	52.6	52.6	81	46.9	2	5	90	0.00	29.655 
23:15	52.6	52.6	52.6	81	46.9	1	4	90	0.00	29.648 
23:20	52.5	52.5	52.5	82	47.2	2	5	112	0.00	29.648 
23:25	52.3	52.3	52.3	84	47.6	1	3	112	0.00	29.648 
23:30	52.2	52.2	52.2	85	47.8	1	3	135	0.01	29.644 
23:35	51.9	51.9	51.9	86	47.8	1	3	90	0.00	29.644 
23:40	51.7	51.7	51.7	87	48.0	1	3	112	0.00	29.644 
23:45	51.6	51.6	51.6	88	48.2	1	3	112	0.00	29.642 
23:50	51.4	51.4	51.4	89	48.3	1	2	112	0.00	29.642 
23:55	51.3	51.3	51.3	89	48.2	1	3	112	0.00	29.642 

CoCoRaHS
IN-AL-39
A2 Web Hosting
Creative Commons License
GoDaddy
Look for:

loaded 2017-12-10 21:14:07 • last modified 2010-11-18 10:43:29
Privacy PolicyDisclaimer
• wx.awcolley.com is powered by PmWiki v.2002016 •
• all content (unless otherwise noted) © 2017 A W Colley